Time;durP1;ratioP1;P1;durP2;ratioP2;P2;SDS_P1;SDS_P2;PMS_P1;PMS_P2;Temp;Humidity;BMP_temperature;BMP_pressure;BME280_temperature;BME280_humidity;BME280_pressure;Samples;Min_cycle;Max_cycle;Signal;HPM_P1;HPM_P2
2023/07/03 00:01:01;;;;;;;23.00;10.98;;;;;;;15.42;66.71;100892.84;4995866;28;20516;-65
2023/07/03 00:03:27;;;;;;;23.08;11.18;;;;;;;15.41;66.64;100890.41;4995908;28;20022;-64
2023/07/03 00:05:53;;;;;;;22.77;10.65;;;;;;;15.39;66.53;100887.16;4995896;28;20461;-65
2023/07/03 00:08:19;;;;;;;21.90;10.73;;;;;;;15.35;66.84;100891.78;4995997;28;20109;-65
2023/07/03 00:10:44;;;;;;;22.60;10.40;;;;;;;15.29;66.79;100889.16;4995850;28;20037;-66
2023/07/03 00:13:10;;;;;;;25.52;11.15;;;;;;;15.26;67.28;100878.69;4994544;28;20478;-65
2023/07/03 00:15:36;;;;;;;23.70;10.52;;;;;;;15.24;67.62;100889.38;4995940;28;20037;-65
2023/07/03 00:18:02;;;;;;;23.83;10.93;;;;;;;15.25;67.57;100881.81;4995580;28;20165;-65
2023/07/03 00:20:27;;;;;;;24.60;10.88;;;;;;;15.23;68.05;100882.16;4995798;28;20518;-65
2023/07/03 00:22:54;;;;;;;21.42;10.95;;;;;;;15.21;68.02;100880.88;4995727;28;20447;-65
2023/07/03 00:25:21;;;;;;;22.77;10.77;;;;;;;15.17;68.01;100868.75;4995470;28;20520;-65
2023/07/03 00:27:47;;;;;;;22.73;10.85;;;;;;;15.18;68.47;100879.56;4995542;28;20038;-65
2023/07/03 00:30:13;;;;;;;24.38;10.80;;;;;;;15.13;68.99;100877.78;4995506;28;20054;-65
2023/07/03 00:32:38;;;;;;;25.60;11.10;;;;;;;15.11;69.01;100873.72;4995480;28;20030;-65
2023/07/03 00:35:04;;;;;;;23.58;10.50;;;;;;;15.10;69.26;100872.91;4995540;28;20363;-65
2023/07/03 00:37:30;;;;;;;23.95;10.85;;;;;;;15.07;68.98;100876.34;4995384;28;20034;-66
2023/07/03 00:39:55;;;;;;;22.63;10.75;;;;;;;15.04;69.19;100876.22;4995245;28;20030;-65
2023/07/03 00:42:25;;;;;;;24.55;11.18;;;;;;;14.95;69.37;100868.72;4995330;28;20049;-66
2023/07/03 00:44:51;;;;;;;23.92;11.18;;;;;;;14.96;69.82;100878.72;4994805;28;20418;-65
2023/07/03 00:47:16;;;;;;;23.90;11.18;;;;;;;14.96;69.80;100873.13;4995321;28;20169;-66
2023/07/03 00:49:42;;;;;;;24.58;11.65;;;;;;;14.92;70.25;100874.94;4995311;28;20030;-65
2023/07/03 00:52:10;;;;;;;24.20;11.18;;;;;;;14.92;70.29;100885.28;4995151;28;20037;-65
2023/07/03 00:54:35;;;;;;;23.85;11.23;;;;;;;14.89;70.73;100866.44;4995168;28;20037;-65
2023/07/03 00:57:01;;;;;;;23.13;10.95;;;;;;;14.89;70.84;100864.47;4995151;28;20022;-65
2023/07/03 00:59:26;;;;;;;21.83;10.20;;;;;;;14.90;71.30;100873.66;4993860;28;20052;-65
2023/07/03 01:02:06;;;;;;;23.77;11.18;;;;;;;14.89;71.15;100866.44;4995003;28;20038;-65
2023/07/03 01:04:58;;;;;;;22.35;10.27;;;;;;;14.90;71.23;100856.94;4994925;28;20028;-66
2023/07/03 01:07:32;;;;;;;24.45;11.18;;;;;;;14.89;71.62;100866.44;4984905;28;20513;-66
2023/07/03 01:10:20;;;;;;;25.00;10.48;;;;;;;14.89;71.89;100855.31;4994929;28;20030;-66
2023/07/03 01:12:50;;;;;;;25.20;10.95;;;;;;;14.88;72.12;100857.25;4994873;28;20060;-66
2023/07/03 01:15:21;;;;;;;25.33;10.75;;;;;;;14.86;72.25;100854.03;4994810;28;20027;-66
2023/07/03 01:17:50;;;;;;;23.75;10.85;;;;;;;14.81;72.37;100857.81;4994606;28;20383;-66
2023/07/03 01:20:18;;;;;;;25.80;11.55;;;;;;;14.80;72.75;100866.47;4994887;28;20030;-66
2023/07/03 01:23:07;;;;;;;24.73;10.93;;;;;;;14.75;73.21;100866.69;4994643;28;20030;-65
2023/07/03 01:25:36;;;;;;;26.05;10.82;;;;;;;14.68;73.25;100863.59;4994433;28;20074;-66
2023/07/03 01:28:04;;;;;;;25.85;11.65;;;;;;;14.70;73.59;100864.06;4994539;28;20026;-66
2023/07/03 01:30:31;;;;;;;26.05;11.23;;;;;;;14.68;73.66;100866.38;4994374;28;20069;-65
2023/07/03 01:32:58;;;;;;;26.23;11.30;;;;;;;14.71;74.42;100865.69;4994415;28;20038;-65
2023/07/03 01:35:25;;;;;;;24.50;10.95;;;;;;;14.70;74.19;100861.28;4994449;28;20085;-65
2023/07/03 01:37:53;;;;;;;25.10;11.02;;;;;;;14.70;74.70;100869.63;4994396;28;20418;-65
2023/07/03 01:40:23;;;;;;;23.80;10.95;;;;;;;14.64;74.43;100860.66;4994422;28;20041;-65
2023/07/03 01:42:50;;;;;;;25.90;11.18;;;;;;;14.65;74.68;100860.31;4994303;28;20542;-65
2023/07/03 01:45:15;;;;;;;23.38;10.85;;;;;;;14.64;74.95;100855.06;4994321;28;20031;-65
2023/07/03 01:47:40;;;;;;;25.60;10.63;;;;;;;14.62;75.07;100855.38;4994247;28;20052;-66
2023/07/03 01:50:12;;;;;;;26.42;11.38;;;;;;;14.60;75.77;100857.69;4994093;28;20505;-65
2023/07/03 01:52:41;;;;;;;24.10;11.27;;;;;;;14.57;76.12;100855.59;4994056;28;20037;-65
2023/07/03 01:55:39;;;;;;;26.38;12.02;;;;;;;14.59;75.97;100867.22;4993998;28;20060;-66
2023/07/03 01:58:21;;;;;;;24.42;10.75;;;;;;;14.50;76.29;100852.47;4985336;28;20050;-66
2023/07/03 02:00:54;;;;;;;26.08;11.10;;;;;;;14.57;76.79;100866.72;4993955;28;20026;-66
2023/07/03 02:03:33;;;;;;;26.80;10.82;;;;;;;14.57;76.98;100860.31;4993828;28;20037;-66
2023/07/03 02:06:08;;;;;;;27.80;11.35;;;;;;;14.53;77.04;100856.59;4993900;28;20037;-66
2023/07/03 02:08:34;;;;;;;27.00;12.18;;;;;;;14.57;77.46;100863.94;4993723;28;20030;-66
2023/07/03 02:10:59;;;;;;;25.00;11.48;;;;;;;14.53;77.23;100842.66;4992323;28;20034;-66
2023/07/03 02:13:24;;;;;;;28.08;11.27;;;;;;;14.49;78.11;100853.66;4993629;28;20033;-66
2023/07/03 02:15:50;;;;;;;24.67;11.38;;;;;;;14.51;78.60;100848.53;4993641;28;20463;-66
2023/07/03 02:18:17;;;;;;;28.30;11.68;;;;;;;14.52;78.74;100858.53;4993639;28;20029;-66
2023/07/03 02:20:46;;;;;;;24.77;11.60;;;;;;;14.49;78.84;100850.88;4992165;28;20359;-66
2023/07/03 02:23:12;;;;;;;27.25;11.13;;;;;;;14.50;79.09;100861.66;4993382;28;20467;-66
2023/07/03 02:25:37;;;;;;;27.08;11.25;;;;;;;14.47;79.51;100856.75;4992136;28;20041;-66
2023/07/03 02:28:04;;;;;;;27.75;11.90;;;;;;;14.39;80.25;100849.25;4993407;28;20058;-66
2023/07/03 02:30:29;;;;;;;24.67;11.77;;;;;;;14.40;80.44;100848.09;4993392;28;20046;-66
2023/07/03 02:32:54;;;;;;;25.00;11.55;;;;;;;14.33;81.36;100840.25;4993402;28;20030;-66
2023/07/03 02:35:20;;;;;;;24.98;12.25;;;;;;;14.34;81.58;100846.66;4993182;28;20041;-65
2023/07/03 02:37:45;;;;;;;27.42;12.63;;;;;;;14.30;82.11;100840.94;4993296;28;20030;-65
2023/07/03 02:40:13;;;;;;;24.55;12.10;;;;;;;14.24;82.42;100831.13;4993133;28;20493;-65
2023/07/03 02:42:39;;;;;;;25.33;12.13;;;;;;;14.20;83.05;100830.97;4993232;28;20078;-65
2023/07/03 02:45:06;;;;;;;31.77;12.50;;;;;;;14.19;83.87;100837.69;4993276;28;20035;-65
2023/07/03 02:47:36;;;;;;;24.80;11.73;;;;;;;14.15;83.95;100833.94;4992909;28;20030;-66
2023/07/03 02:50:07;;;;;;;24.35;12.35;;;;;;;14.15;84.65;100824.75;4993241;28;20045;-66
2023/07/03 02:52:32;;;;;;;24.45;11.98;;;;;;;14.09;84.78;100828.88;4993206;28;20099;-66
2023/07/03 02:54:58;;;;;;;30.92;12.57;;;;;;;14.07;85.01;100833.94;4993157;28;20077;-66
2023/07/03 02:57:24;;;;;;;28.55;12.85;;;;;;;13.99;85.64;100824.47;4991684;28;20066;-66
2023/07/03 02:59:49;;;;;;;25.85;11.73;;;;;;;13.96;85.79;100820.38;4992993;28;20026;-66
2023/07/03 03:02:15;;;;;;;30.48;12.70;;;;;;;13.90;86.44;100824.50;4992906;28;20040;-66
2023/07/03 03:04:40;;;;;;;30.48;12.93;;;;;;;13.85;86.30;100819.91;4992942;28;20026;-66
2023/07/03 03:07:06;;;;;;;27.90;12.55;;;;;;;13.81;86.75;100829.25;4992930;28;20138;-66
2023/07/03 03:09:31;;;;;;;26.42;12.77;;;;;;;13.71;88.16;100822.03;4992885;28;20394;-66
2023/07/03 03:11:56;;;;;;;28.00;13.32;;;;;;;13.64;88.98;100824.50;4992687;28;20422;-66
2023/07/03 03:14:22;;;;;;;28.63;12.70;;;;;;;13.59;89.17;100827.47;4992735;28;20113;-66
2023/07/03 03:16:47;;;;;;;29.02;13.10;;;;;;;13.53;89.90;100816.50;4992834;28;20057;-65
2023/07/03 03:19:12;;;;;;;28.73;12.73;;;;;;;13.47;90.41;100823.38;4991267;28;20034;-65
2023/07/03 03:21:38;;;;;;;30.65;12.85;;;;;;;13.44;90.87;100815.69;4992611;28;20474;-65
2023/07/03 03:24:03;;;;;;;26.55;12.95;;;;;;;13.38;91.36;100819.75;4992651;28;20058;-65
2023/07/03 03:26:29;;;;;;;26.92;12.88;;;;;;;13.32;91.88;100813.53;4992453;28;20038;-65
2023/07/03 03:28:54;;;;;;;28.83;13.23;;;;;;;13.30;92.38;100815.81;4992487;28;20056;-65
2023/07/03 03:31:19;;;;;;;28.45;13.38;;;;;;;13.29;93.28;100816.94;4992549;28;20406;-65
2023/07/03 03:33:45;;;;;;;30.58;13.93;;;;;;;13.27;93.28;100824.81;4992514;28;20036;-65
2023/07/03 03:36:10;;;;;;;31.27;14.43;;;;;;;13.27;94.30;100816.47;4991061;28;20126;-66
2023/07/03 03:38:35;;;;;;;29.20;14.13;;;;;;;13.29;94.16;100821.69;4992607;28;20073;-66
2023/07/03 03:41:03;;;;;;;28.20;13.40;;;;;;;13.32;94.11;100812.72;4992347;28;20041;-66
2023/07/03 03:43:28;;;;;;;28.90;13.25;;;;;;;13.33;94.73;100823.50;4992151;28;20077;-66
2023/07/03 03:45:59;;;;;;;28.77;13.18;;;;;;;13.32;95.20;100813.53;4992210;28;20038;-66
2023/07/03 03:48:26;;;;;;;31.25;12.63;;;;;;;13.35;95.46;100823.16;4992295;28;20498;-66
2023/07/03 03:50:51;;;;;;;27.10;12.43;;;;;;;13.37;95.26;100818.09;4992422;28;20117;-65
2023/07/03 03:53:17;;;;;;;30.02;12.77;;;;;;;13.36;95.94;100820.06;4991195;28;20109;-66
2023/07/03 03:55:43;;;;;;;28.58;12.32;;;;;;;13.34;95.94;100819.56;4992408;28;20019;-66
2023/07/03 03:58:11;;;;;;;27.52;12.50;;;;;;;13.32;96.63;100827.41;4992312;28;20031;-65
2023/07/03 04:00:37;;;;;;;32.45;12.13;;;;;;;13.31;96.36;100822.19;4992348;28;20497;-65
2023/07/03 04:03:02;;;;;;;26.95;11.77;;;;;;;13.32;97.12;100821.84;4992429;28;20030;-66
2023/07/03 04:05:28;;;;;;;28.75;12.10;;;;;;;13.32;97.05;100821.84;4992380;28;20589;-66
2023/07/03 04:07:53;;;;;;;27.58;12.05;;;;;;;13.35;97.00;100828.72;4992537;28;20525;-66
2023/07/03 04:10:18;;;;;;;34.33;12.23;;;;;;;13.34;97.42;100830.69;4992443;28;20117;-66
2023/07/03 04:12:44;;;;;;;29.25;12.15;;;;;;;13.31;97.75;100824.97;4992518;28;20072;-66
2023/07/03 04:15:09;;;;;;;31.83;11.50;;;;;;;13.26;98.06;100815.63;4992145;28;20041;-68
2023/07/03 04:17:34;;;;;;;29.95;12.13;;;;;;;13.31;98.30;100820.22;4992287;28;20410;-66
2023/07/03 04:20:00;;;;;;;28.55;11.88;;;;;;;13.28;98.93;100826.41;4994079;28;20026;-66
2023/07/03 04:22:26;;;;;;;28.65;12.15;;;;;;;13.29;98.76;100833.63;4995671;28;20031;-65
2023/07/03 04:24:52;;;;;;;29.80;12.23;;;;;;;13.36;99.17;100828.41;4995623;28;20106;-66
2023/07/03 04:27:18;;;;;;;26.55;11.75;;;;;;;13.40;98.68;100825.81;4995829;28;20129;-65
2023/07/03 04:29:43;;;;;;;28.92;11.52;;;;;;;13.41;98.90;100831.06;4995468;28;20045;-65
2023/07/03 04:32:08;;;;;;;27.77;12.25;;;;;;;13.45;98.79;100822.06;4995639;28;20037;-65
2023/07/03 04:34:34;;;;;;;33.38;13.10;;;;;;;13.51;98.37;100823.53;4995547;28;20033;-65
2023/07/03 04:36:59;;;;;;;28.08;12.10;;;;;;;13.54;98.80;100832.03;4995321;28;20331;-65
2023/07/03 04:39:25;;;;;;;29.60;12.00;;;;;;;13.56;98.68;100826.97;4995352;28;20026;-65
2023/07/03 04:41:50;;;;;;;28.88;12.10;;;;;;;13.64;98.37;100830.91;4994084;28;20106;-66
2023/07/03 04:44:15;;;;;;;28.08;12.13;;;;;;;13.68;98.20;100839.41;4993975;28;20054;-65
2023/07/03 04:46:43;;;;;;;29.90;12.50;;;;;;;13.71;98.21;100847.06;4995199;28;20064;-65
2023/07/03 04:49:10;;;;;;;31.25;13.23;;;;;;;13.70;98.02;100845.44;4995542;28;20031;-66
2023/07/03 04:51:36;;;;;;;27.52;12.63;;;;;;;13.71;98.86;100852.63;4995030;28;20026;-65
2023/07/03 04:54:03;;;;;;;27.42;11.98;;;;;;;13.70;99.35;100854.59;4995012;28;20032;-65
2023/07/03 04:56:32;;;;;;;28.35;12.00;;;;;;;13.70;100.00;100845.44;4994913;28;20538;-65
2023/07/03 04:58:57;;;;;;;25.85;12.57;;;;;;;13.69;100.00;100861.31;4994962;28;20041;-65
2023/07/03 05:01:24;;;;;;;30.60;13.55;;;;;;;13.67;100.00;100860.81;4994667;28;20035;-65
2023/07/03 05:03:49;;;;;;;28.95;12.18;;;;;;;13.70;100.00;100850.97;4994999;28;20137;-65
2023/07/03 05:06:15;;;;;;;31.90;12.13;;;;;;;13.66;100.00;100859.16;4994921;28;20491;-65
2023/07/03 05:08:40;;;;;;;29.15;12.38;;;;;;;13.69;100.00;100860.50;4994174;28;20147;-64
2023/07/03 05:11:06;;;;;;;29.13;12.45;;;;;;;13.72;100.00;100866.22;4993027;28;20459;-64
2023/07/03 05:13:31;;;;;;;30.02;12.75;;;;;;;13.77;100.00;100864.41;4994690;28;20495;-65
2023/07/03 05:15:56;;;;;;;32.15;12.35;;;;;;;13.80;100.00;100864.56;4994634;28;20030;-64
2023/07/03 05:18:22;;;;;;;27.77;12.10;;;;;;;13.87;100.00;100867.69;4994764;28;20026;-63
2023/07/03 05:20:49;;;;;;;32.25;12.93;;;;;;;13.95;100.00;100871.59;4994756;28;20433;-63
2023/07/03 05:23:15;;;;;;;28.25;12.10;;;;;;;14.02;100.00;100871.09;4994392;28;20038;-64
2023/07/03 05:25:41;;;;;;;29.27;12.77;;;;;;;14.07;100.00;100868.16;4994922;28;20034;-64
2023/07/03 05:28:07;;;;;;;28.90;12.32;;;;;;;14.11;99.34;100868.31;4993595;28;20038;-64
2023/07/03 05:30:32;;;;;;;27.52;12.43;;;;;;;14.12;99.18;100867.16;4992367;28;20054;-64
2023/07/03 05:32:58;;;;;;;29.90;13.43;;;;;;;14.11;98.77;100873.88;4993168;28;20026;-64
2023/07/03 05:35:24;;;;;;;25.60;11.50;;;;;;;14.17;98.33;100875.34;4994165;28;20030;-65
2023/07/03 05:37:49;;;;;;;29.90;12.60;;;;;;;14.22;98.47;100889.06;4994251;28;20034;-65
2023/07/03 05:40:14;;;;;;;29.15;11.57;;;;;;;14.32;97.37;100882.34;4993773;28;20085;-65
2023/07/03 05:42:40;;;;;;;28.23;12.13;;;;;;;14.35;96.79;100887.25;4994065;28;20500;-64
2023/07/03 05:45:07;;;;;;;29.95;12.40;;;;;;;14.43;96.87;100882.78;4993974;28;20038;-64
2023/07/03 05:47:34;;;;;;;28.23;12.07;;;;;;;14.49;96.73;100887.06;4993935;28;20573;-64
2023/07/03 05:49:59;;;;;;;28.67;12.13;;;;;;;14.54;95.59;100884.06;4993898;28;20026;-64
2023/07/03 05:52:24;;;;;;;29.42;12.30;;;;;;;14.59;95.63;100889.47;4994238;28;20486;-65
2023/07/03 05:54:50;;;;;;;27.50;11.27;;;;;;;14.65;95.41;100892.88;4993984;28;20816;-64
2023/07/03 05:57:15;;;;;;;30.13;12.23;;;;;;;14.68;95.00;100889.47;4993927;28;20087;-65
2023/07/03 05:59:41;;;;;;;28.17;12.07;;;;;;;14.70;94.43;100889.13;4993883;28;20042;-65
2023/07/03 06:02:09;;;;;;;29.42;12.10;;;;;;;14.72;94.06;100900.75;4993845;28;20055;-65
2023/07/03 06:04:35;;;;;;;28.50;12.27;;;;;;;14.71;93.74;100899.13;4993815;28;20105;-68
2023/07/03 06:07:01;;;;;;;30.05;12.20;;;;;;;14.71;93.76;100894.38;4993414;28;20068;-64
2023/07/03 06:09:27;;;;;;;27.23;12.00;;;;;;;14.74;93.09;100890.09;4993080;28;20117;-65
2023/07/03 06:11:53;;;;;;;25.95;12.63;;;;;;;14.78;93.25;100908.59;4992987;28;20108;-64
2023/07/03 06:14:19;;;;;;;27.90;12.15;;;;;;;14.80;93.61;100906.31;4992922;28;20053;-64
2023/07/03 06:16:47;;;;;;;28.70;12.13;;;;;;;14.81;93.41;100899.59;4972041;28;20023;-65
2023/07/03 06:19:13;;;;;;;26.08;11.88;;;;;;;14.87;93.12;100916.09;4972202;28;20455;-65
2023/07/03 06:21:39;;;;;;;30.20;12.38;;;;;;;14.87;93.00;100907.75;4972084;28;20081;-65
2023/07/03 06:24:07;;;;;;;28.90;12.75;;;;;;;14.85;93.15;100915.59;4973068;28;20403;-64
2023/07/03 06:26:33;;;;;;;29.70;12.50;;;;;;;14.79;93.35;100910.22;4972940;28;20080;-64
2023/07/03 06:29:02;;;;;;;28.00;12.23;;;;;;;14.81;93.73;100909.88;4972930;28;20062;-64
2023/07/03 06:31:28;;;;;;;28.42;13.32;;;;;;;14.79;95.23;100918.59;4971417;28;20397;-65
2023/07/03 06:33:53;;;;;;;27.90;12.38;;;;;;;14.76;95.52;100907.31;4971801;28;20035;-64
2023/07/03 06:36:21;;;;;;;32.30;12.80;;;;;;;14.80;96.82;100906.31;4972535;28;20114;-64
2023/07/03 06:38:57;;;;;;;29.88;13.02;;;;;;;14.89;97.06;100911.03;4972906;28;20085;-64
2023/07/03 06:41:25;;;;;;;30.38;12.80;;;;;;;14.98;96.38;100912.59;4972708;28;20026;-64
2023/07/03 06:43:51;;;;;;;26.30;12.50;;;;;;;15.05;96.34;100897.34;4972498;28;20042;-64
2023/07/03 06:46:17;;;;;;;29.00;12.75;;;;;;;15.20;95.32;100902.34;4972736;28;20065;-64
2023/07/03 06:48:43;;;;;;;27.08;13.10;;;;;;;15.35;95.93;100905.72;4972731;28;20061;-64
2023/07/03 06:51:11;;;;;;;25.58;12.45;;;;;;;15.41;95.59;100904.34;4972650;28;20030;-64
2023/07/03 06:53:36;;;;;;;30.88;12.63;;;;;;;15.50;94.30;100895.91;4971356;28;20030;-65
2023/07/03 06:56:03;;;;;;;25.15;12.07;;;;;;;15.53;94.30;100892.47;4971230;28;20100;-65
2023/07/03 06:58:30;;;;;;;29.95;13.40;;;;;;;15.60;93.97;100898.31;4972521;28;20545;-65
2023/07/03 07:00:56;;;;;;;25.02;12.05;;;;;;;15.66;92.46;100898.91;4987153;28;20034;-65
2023/07/03 07:03:21;;;;;;;28.08;12.70;;;;;;;15.63;91.73;100905.19;4972457;28;20114;-64
2023/07/03 07:05:47;;;;;;;26.23;12.18;;;;;;;15.56;91.20;100898.16;5007499;28;20117;-64
2023/07/03 07:08:18;;;;;;;27.00;12.70;;;;;;;15.51;91.68;100905.91;5011490;28;20382;-65
2023/07/03 07:10:44;;;;;;;26.58;12.48;;;;;;;15.47;91.29;100899.41;5011609;28;20037;-65
2023/07/03 07:13:11;;;;;;;26.88;12.35;;;;;;;15.43;91.30;100904.84;5011488;28;20151;-65
2023/07/03 07:15:38;;;;;;;27.55;12.65;;;;;;;15.43;90.69;100913.19;5011279;28;20034;-65
2023/07/03 07:18:06;;;;;;;25.65;12.10;;;;;;;15.42;90.03;100912.38;5011384;28;20049;-65
2023/07/03 07:20:40;;;;;;;25.92;11.70;;;;;;;15.52;89.57;100925.13;5011258;28;20415;-65
2023/07/03 07:23:09;;;;;;;29.65;12.95;;;;;;;15.55;89.55;100918.03;5011341;28;20038;-65
2023/07/03 07:25:34;;;;;;;27.80;12.07;;;;;;;15.63;88.37;100914.38;5011422;28;20034;-66
2023/07/03 07:28:01;;;;;;;25.52;11.90;;;;;;;15.71;87.98;100921.03;5011464;28;20044;-65
2023/07/03 07:30:26;;;;;;;27.27;11.93;;;;;;;15.77;87.89;100918.88;5011640;28;20061;-65
2023/07/03 07:32:52;;;;;;;29.20;12.13;;;;;;;15.86;87.13;100914.88;5010918;28;20018;-65
2023/07/03 07:35:18;;;;;;;26.67;11.95;;;;;;;15.95;86.16;100919.56;5011490;28;20030;-65
2023/07/03 07:37:43;;;;;;;27.05;12.13;;;;;;;16.06;84.93;100924.38;4993886;28;20054;-64
2023/07/03 07:40:09;;;;;;;24.92;11.57;;;;;;;16.17;83.88;100916.44;4991544;28;20081;-64
2023/07/03 07:42:35;;;;;;;26.02;12.00;;;;;;;16.31;83.27;100913.34;4991314;28;20050;-65
2023/07/03 07:45:01;;;;;;;26.42;12.05;;;;;;;16.48;83.01;100923.47;4991080;28;20030;-64
2023/07/03 07:47:28;;;;;;;25.42;11.82;;;;;;;16.65;82.32;100925.28;4991174;28;20034;-64
2023/07/03 07:49:54;;;;;;;26.98;12.07;;;;;;;16.81;79.62;100925.44;4991312;28;20050;-65
2023/07/03 07:52:19;;;;;;;26.85;12.45;;;;;;;17.12;78.99;100921.31;4991119;28;20308;-65
2023/07/03 07:54:44;;;;;;;26.10;11.90;;;;;;;17.39;76.33;100926.50;4991427;28;20053;-64
2023/07/03 07:57:09;;;;;;;24.60;11.07;;;;;;;17.43;74.08;100928.25;4994924;28;20063;-65
2023/07/03 07:59:35;;;;;;;23.35;11.40;;;;;;;17.37;73.99;100917.69;4994875;28;20042;-65
2023/07/03 08:02:01;;;;;;;27.67;11.93;;;;;;;17.34;73.71;100912.78;4994717;28;20069;-64
2023/07/03 08:04:26;;;;;;;28.17;12.32;;;;;;;17.28;74.35;100932.59;4995655;28;20026;-65
2023/07/03 08:06:52;;;;;;;25.35;11.63;;;;;;;17.13;73.89;100925.72;4995085;28;20023;-66
2023/07/03 08:09:18;;;;;;;25.48;11.25;;;;;;;17.02;74.50;100930.16;4995119;28;20054;-66
2023/07/03 08:11:44;;;;;;;24.98;11.88;;;;;;;16.87;73.32;100926.03;4994881;28;20039;-66
2023/07/03 08:14:10;;;;;;;25.17;11.20;;;;;;;16.80;74.10;100931.38;4995170;28;20041;-65
2023/07/03 08:16:35;;;;;;;24.23;10.80;;;;;;;16.78;73.69;100926.13;4995084;28;20037;-65
2023/07/03 08:19:01;;;;;;;25.05;11.02;;;;;;;16.78;73.48;100930.91;4993510;28;20030;-65
2023/07/03 08:21:26;;;;;;;25.05;11.10;;;;;;;16.78;72.23;100933.69;4994906;28;20037;-66
2023/07/03 08:23:52;;;;;;;23.10;10.80;;;;;;;16.82;72.48;100934.63;4994942;28;20027;-65
2023/07/03 08:26:22;;;;;;;22.77;11.02;;;;;;;16.76;71.98;100927.63;4995266;28;20059;-65
2023/07/03 08:28:48;;;;;;;24.08;11.25;;;;;;;16.87;72.34;100936.38;4995313;28;20096;-65
2023/07/03 08:31:13;;;;;;;24.98;11.18;;;;;;;16.94;71.95;100945.03;4995032;28;20500;-65
2023/07/03 08:33:38;;;;;;;25.02;10.70;;;;;;;16.94;72.10;100934.66;4994249;28;20022;-65
2023/07/03 08:36:05;;;;;;;24.02;11.32;;;;;;;16.93;71.71;100933.03;4994669;28;20038;-65
2023/07/03 08:38:30;;;;;;;25.08;10.82;;;;;;;16.96;72.33;100937.09;4994599;28;20034;-65
2023/07/03 08:41:00;;;;;;;22.40;10.65;;;;;;;17.03;70.40;100947.72;4994511;28;20482;-64
2023/07/03 08:43:41;;;;;;;23.17;10.80;;;;;;;17.06;69.90;100947.03;4994592;28;20026;-64
2023/07/03 08:46:16;;;;;;;25.20;11.68;;;;;;;17.22;70.61;100947.16;4994438;28;20039;-64
2023/07/03 08:48:43;;;;;;;22.98;10.77;;;;;;;17.35;68.63;100953.56;4994805;28;20069;-64
2023/07/03 08:51:14;;;;;;;24.98;11.40;;;;;;;17.44;67.86;100945.88;4994090;28;20036;-64
2023/07/03 08:53:42;;;;;;;21.95;10.57;;;;;;;17.47;66.95;100956.34;5003229;28;20037;-65
2023/07/03 08:56:14;;;;;;;23.00;10.75;;;;;;;17.55;67.62;100949.00;4982841;28;20084;-64
2023/07/03 08:58:40;;;;;;;22.33;11.20;;;;;;;17.50;66.40;100958.44;4974486;28;20023;-64
2023/07/03 09:01:44;;;;;;;24.13;11.13;;;;;;;17.75;67.24;100961.22;4989039;28;20053;-63
2023/07/03 09:04:15;;;;;;;;;;;;;;;17.89;64.82;100963.63;4971402;28;20042;-64
2023/07/03 09:06:50;;;;;;;23.77;10.60;;;;;;;17.93;65.22;100961.75;4992252;28;20349;-63
2023/07/03 09:09:23;;;;;;;24.42;10.23;;;;;;;18.16;63.47;100953.66;5009879;28;20026;-64
2023/07/03 09:12:01;;;;;;;23.88;10.32;;;;;;;18.30;62.83;100958.84;4994630;28;20034;-64
2023/07/03 09:14:32;;;;;;;20.83;10.70;;;;;;;18.53;61.31;100963.88;4986550;28;20026;-64
2023/07/03 09:16:58;;;;;;;20.02;9.82;;;;;;;18.72;60.87;100954.78;4998306;28;20026;-63
2023/07/03 09:19:26;;;;;;;24.92;10.15;;;;;;;18.81;58.67;100961.03;4999128;28;20022;-64
2023/07/03 09:21:56;;;;;;;21.55;10.57;;;;;;;18.83;58.50;100964.28;4994652;28;20030;-64
2023/07/03 09:24:30;;;;;;;20.90;10.13;;;;;;;18.87;58.12;100961.59;5010235;28;20470;-64
2023/07/03 09:27:19;;;;;;;22.13;10.50;;;;;;;18.86;59.15;100959.94;5000371;28;20038;-64
2023/07/03 09:29:45;;;;;;;22.67;10.15;;;;;;;18.82;59.07;100965.47;4993326;28;20150;-64
2023/07/03 09:32:20;;;;;;;21.23;10.55;;;;;;;18.70;58.97;100968.38;5003415;28;20026;-63
2023/07/03 09:35:13;;;;;;;23.50;10.90;;;;;;;18.49;60.06;100957.38;5012125;28;20109;-64
2023/07/03 09:37:41;;;;;;;23.08;10.93;;;;;;;18.34;61.40;100975.75;5013140;28;20037;-63
2023/07/03 09:40:13;;;;;;;20.80;11.30;;;;;;;18.22;61.89;100979.41;5001040;28;20471;-64
2023/07/03 09:42:41;;;;;;;22.23;11.15;;;;;;;18.17;62.35;100977.69;4980508;28;20439;-63
2023/07/03 09:45:20;;;;;;;23.88;11.13;;;;;;;18.15;62.32;100976.41;4974218;28;20117;-64
2023/07/03 09:47:57;;;;;;;22.55;11.40;;;;;;;17.99;62.27;100973.53;4969943;28;20082;-64
2023/07/03 09:50:35;;;;;;;24.13;11.30;;;;;;;17.85;64.30;100960.72;4973852;28;20019;-64
2023/07/03 09:53:02;;;;;;;22.88;11.43;;;;;;;17.83;63.95;100967.84;4973715;28;20035;-63
2023/07/03 09:55:28;;;;;;;24.27;12.13;;;;;;;17.81;64.52;100971.00;4972850;28;20034;-64
2023/07/03 09:57:54;;;;;;;25.23;11.65;;;;;;;17.74;65.22;100974.38;4978989;28;20034;-65
2023/07/03 10:00:22;;;;;;;24.05;12.15;;;;;;;17.64;64.85;100982.44;4989319;28;20069;-64
2023/07/03 10:02:54;;;;;;;22.42;11.20;;;;;;;17.64;66.33;100974.06;4989107;28;20536;-64
2023/07/03 10:05:29;;;;;;;34.92;12.90;;;;;;;17.67;66.73;100968.56;4993326;28;20027;-64
2023/07/03 10:07:55;;;;;;;52.13;16.40;;;;;;;17.74;66.27;100977.19;4993100;28;20022;-64
2023/07/03 10:10:27;;;;;;;25.30;12.30;;;;;;;17.86;66.23;100978.31;4992919;28;20117;-64
2023/07/03 10:12:58;;;;;;;34.85;12.60;;;;;;;18.16;65.66;100978.06;4983956;28;20034;-64
2023/07/03 10:15:28;;;;;;;37.95;14.05;;;;;;;18.37;64.57;100975.84;4987896;28;20042;-64
2023/07/03 10:18:22;;;;;;;24.05;11.43;;;;;;;18.86;63.72;100985.19;4992015;28;20501;-64
2023/07/03 10:20:49;;;;;;;23.13;10.97;;;;;;;18.76;62.52;100983.72;4991891;28;20372;-63
2023/07/03 10:23:26;;;;;;;22.95;10.77;;;;;;;18.88;63.15;100982.03;4992191;28;20049;-63
2023/07/03 10:26:11;;;;;;;24.05;10.98;;;;;;;18.93;61.83;100971.41;4991942;28;20022;-64
2023/07/03 10:28:51;;;;;;;26.05;11.35;;;;;;;18.97;62.09;100980.69;4992213;28;20046;-64
2023/07/03 10:31:51;;;;;;;25.92;11.77;;;;;;;18.94;61.51;100978.59;4992031;28;20135;-67
2023/07/03 10:34:44;;;;;;;24.85;11.73;;;;;;;18.90;62.02;100985.25;4985415;28;20506;-64
2023/07/03 10:37:12;;;;;;;38.08;13.18;;;;;;;18.81;60.44;101000.28;4970028;28;20444;-69
2023/07/03 10:39:42;;;;;;;25.33;11.52;;;;;;;18.82;60.14;100976.69;4981802;28;20491;-67
2023/07/03 10:42:19;;;;;;;30.55;12.43;;;;;;;19.04;60.56;100974.47;4977791;28;20030;-67
2023/07/03 10:44:46;;;;;;;24.25;10.90;;;;;;;19.32;60.18;100971.56;4989902;28;20493;-68
2023/07/03 10:47:20;;;;;;;24.33;10.90;;;;;;;19.60;58.97;100970.59;4990618;28;20058;-67
2023/07/03 10:49:46;;;;;;;26.02;11.57;;;;;;;19.85;57.40;100966.75;4988254;28;20030;-68
2023/07/03 10:52:18;;;;;;;24.35;11.48;;;;;;;19.95;56.87;100969.84;4979428;28;20038;-68
2023/07/03 10:54:54;;;;;;;24.27;11.80;;;;;;;19.80;56.60;100962.22;4979626;28;20058;-68
2023/07/03 10:57:28;;;;;;;23.13;11.10;;;;;;;19.55;54.48;100961.69;4980092;28;20038;-68
2023/07/03 10:59:58;;;;;;;21.08;10.57;;;;;;;19.43;52.82;100973.81;4972487;28;20558;-68
2023/07/03 11:02:43;;;;;;;19.40;9.65;;;;;;;19.31;52.25;100978.38;4982010;28;20050;-66
2023/07/03 11:05:15;;;;;;;24.33;10.45;;;;;;;19.15;52.16;100975.56;4971722;28;20029;-68
2023/07/03 11:07:55;;;;;;;21.17;10.05;;;;;;;19.00;53.31;100985.59;4980199;28;20039;-67
2023/07/03 11:10:30;;;;;;;21.40;9.80;;;;;;;19.10;53.94;100973.00;4980630;28;20128;-69
2023/07/03 11:13:04;;;;;;;27.17;9.30;;;;;;;19.25;53.58;100974.19;4981483;28;20129;-69
2023/07/03 11:15:44;;;;;;;18.45;8.50;;;;;;;19.37;50.60;100978.88;4990231;28;20033;-67